Terminal Aerodrome Forecast
Issued by NWS

Home | Current Version | Previous Version | Text Only | Print | Product List | Glossary On
Versions: 1 2 3 4 5 6 7 8 9 10 11 12 13 14 15
991
FTUS43 KIND 290520
TAFLAF
TAF
KLAF 290520Z 2906/3006 03006KT 4SM BR VCSH OVC005
     FM291200 04007KT 3SM SHRA OVC010
     FM291600 06009KT 2SM SHRA VCTS OVC015CB
     FM292100 09009KT 2SM SHRA VCTS OVC015CB
     FM292300 08009KT 3SM SHRA VCTS OVC015CB
     FM300000 08008KT 3SM SHRA OVC015
      AMD LTD TO CLD VIS AND WIND TIL 291300=

USA.gov is the U.S. government's official web portal to all federal, state and local government web resources and services.